createdAt,value
2023-05-14T00:00:33.067Z,20.41
2023-05-14T00:03:05.108Z,20.37
2023-05-14T00:05:37.167Z,20.38
2023-05-14T00:08:09.219Z,20.34
2023-05-14T00:10:41.234Z,20.34
2023-05-14T00:13:13.173Z,20.32
2023-05-14T00:15:45.129Z,20.32
2023-05-14T00:18:17.376Z,20.33
2023-05-14T00:20:51.614Z,20.29
2023-05-14T00:23:24.480Z,20.22
2023-05-14T00:25:56.473Z,20.25
2023-05-14T00:28:28.491Z,20.23
2023-05-14T00:31:00.584Z,20.21
2023-05-14T00:33:33.126Z,20.18
2023-05-14T00:36:05.311Z,20.16
2023-05-14T00:38:37.309Z,20.13
2023-05-14T00:41:09.310Z,20.12
2023-05-14T00:43:41.299Z,20.09
2023-05-14T00:46:14.334Z,20.08
2023-05-14T00:48:46.639Z,20.04
2023-05-14T00:51:19.147Z,19.99
2023-05-14T00:53:52.122Z,19.97
2023-05-14T00:56:24.923Z,19.92
2023-05-14T00:58:56.858Z,19.85
2023-05-14T01:01:28.944Z,19.81
2023-05-14T01:04:01.521Z,19.78
2023-05-14T01:06:54.438Z,19.69
2023-05-14T01:09:29.333Z,19.67
2023-05-14T01:12:06.915Z,19.63
2023-05-14T01:15:06.615Z,19.55
2023-05-14T01:17:53.668Z,19.51
2023-05-14T01:20:27.296Z,19.49
2023-05-14T01:22:59.294Z,19.43
2023-05-14T01:25:32.417Z,19.39
2023-05-14T01:28:20.398Z,19.34
2023-05-14T01:31:00.907Z,19.33
2023-05-14T01:33:36.083Z,19.32
2023-05-14T01:36:08.500Z,19.29
2023-05-14T01:38:45.627Z,19.23
2023-05-14T01:41:19.789Z,19.21
2023-05-14T01:43:52.268Z,19.18
2023-05-14T01:46:25.230Z,19.16
2023-05-14T01:48:57.184Z,19.14
2023-05-14T01:51:29.254Z,19.10
2023-05-14T01:54:01.241Z,19.00
2023-05-14T01:56:33.259Z,19.00
2023-05-14T01:59:05.239Z,18.98
2023-05-14T02:01:37.201Z,18.93
2023-05-14T02:04:09.265Z,18.89
2023-05-14T02:06:41.248Z,18.85
2023-05-14T02:09:13.426Z,18.83
2023-05-14T02:11:45.407Z,18.81
2023-05-14T02:14:17.424Z,18.73
2023-05-14T02:16:51.028Z,18.70
2023-05-14T02:19:23.148Z,18.62
2023-05-14T02:21:55.313Z,18.63
2023-05-14T02:24:27.618Z,18.58
2023-05-14T02:27:01.110Z,18.56
2023-05-14T02:29:33.093Z,18.54
2023-05-14T02:32:05.674Z,18.51
2023-05-14T02:34:38.704Z,18.49
2023-05-14T02:37:10.722Z,18.46
2023-05-14T02:39:42.745Z,18.47
2023-05-14T02:42:14.680Z,18.41
2023-05-14T02:44:46.621Z,18.37
2023-05-14T02:47:19.066Z,18.33
2023-05-14T02:49:51.331Z,18.32
2023-05-14T02:52:23.284Z,18.31
2023-05-14T02:54:55.201Z,18.31
2023-05-14T02:57:27.201Z,18.13
2023-05-14T02:59:59.222Z,18.28
2023-05-14T03:02:31.734Z,18.29
2023-05-14T03:05:04.668Z,18.26
2023-05-14T03:07:36.720Z,18.24
2023-05-14T03:10:09.333Z,18.25
2023-05-14T03:12:41.276Z,18.22
2023-05-14T03:15:13.224Z,18.20
2023-05-14T03:17:45.202Z,18.19
2023-05-14T03:20:17.301Z,18.16
2023-05-14T03:22:49.451Z,18.16
2023-05-14T03:25:21.518Z,18.11
2023-05-14T03:27:53.464Z,18.11
2023-05-14T03:30:26.010Z,18.06
2023-05-14T03:32:59.728Z,18.01
2023-05-14T03:35:31.827Z,18.01
2023-05-14T03:38:03.820Z,18.00
2023-05-14T03:40:35.876Z,18.22
2023-05-14T03:43:07.813Z,17.96
2023-05-14T03:45:40.498Z,17.89
2023-05-14T03:48:12.522Z,17.84
2023-05-14T03:50:44.577Z,17.84
2023-05-14T03:53:17.045Z,17.82
2023-05-14T03:55:49.090Z,17.78
2023-05-14T03:58:21.012Z,17.75
2023-05-14T04:00:53.122Z,17.71
2023-05-14T04:03:25.211Z,17.63
2023-05-14T04:05:57.211Z,17.61
2023-05-14T04:08:29.118Z,17.60
2023-05-14T04:11:01.072Z,17.58
2023-05-14T04:13:32.995Z,17.55
2023-05-14T04:16:05.497Z,17.54
2023-05-14T04:18:37.468Z,17.54
2023-05-14T04:21:09.679Z,17.54
2023-05-14T04:23:41.637Z,17.54
2023-05-14T04:26:13.631Z,17.52
2023-05-14T04:28:45.701Z,17.54
2023-05-14T04:31:17.720Z,17.49
2023-05-14T04:33:49.652Z,17.46
2023-05-14T04:36:21.634Z,17.46
2023-05-14T04:38:53.579Z,17.49
2023-05-14T04:41:25.664Z,17.48
2023-05-14T04:43:58.992Z,17.48
2023-05-14T04:46:31.194Z,17.49
2023-05-14T04:49:03.193Z,17.48
2023-05-14T04:51:35.152Z,17.49
2023-05-14T04:54:07.143Z,17.47
2023-05-14T04:56:39.119Z,17.50
2023-05-14T04:59:11.082Z,17.42
2023-05-14T05:01:43.145Z,17.44
2023-05-14T05:04:15.220Z,17.42
2023-05-14T05:06:47.277Z,17.46
2023-05-14T05:09:19.218Z,17.48
2023-05-14T05:11:51.296Z,17.44
2023-05-14T05:14:23.189Z,17.45
2023-05-14T05:16:55.134Z,17.45
2023-05-14T05:19:39.701Z,17.43
2023-05-14T05:22:16.181Z,17.40
2023-05-14T05:24:49.785Z,17.43
2023-05-14T05:27:22.143Z,17.47
2023-05-14T05:29:54.004Z,17.48
2023-05-14T05:32:26.085Z,17.51
2023-05-14T05:34:58.099Z,17.52
2023-05-14T05:37:31.924Z,17.55
2023-05-14T05:40:05.955Z,17.59
2023-05-14T05:42:37.872Z,17.67
2023-05-14T05:45:10.424Z,17.72
2023-05-14T05:47:42.459Z,17.86
2023-05-14T05:50:15.080Z,17.91
2023-05-14T05:52:47.234Z,18.02
2023-05-14T05:55:19.324Z,18.03
2023-05-14T05:57:51.395Z,18.00
2023-05-14T06:00:24.694Z,18.14
2023-05-14T06:02:57.116Z,18.22
2023-05-14T06:05:29.087Z,18.30
2023-05-14T06:08:01.468Z,18.28
2023-05-14T06:10:34.846Z,18.18
2023-05-14T06:13:06.978Z,18.22
2023-05-14T06:15:39.096Z,18.33
2023-05-14T06:18:11.014Z,18.45
2023-05-14T06:20:43.164Z,18.52
2023-05-14T06:23:15.085Z,18.53
2023-05-14T06:25:48.421Z,18.64
2023-05-14T06:28:22.204Z,18.78
2023-05-14T06:30:54.239Z,18.97
2023-05-14T06:33:30.928Z,19.11
2023-05-14T06:36:06.248Z,19.30
2023-05-14T06:38:38.446Z,19.49
2023-05-14T06:41:10.511Z,19.70
2023-05-14T06:43:42.445Z,19.84
2023-05-14T06:46:14.336Z,19.86
2023-05-14T06:48:46.393Z,19.92
2023-05-14T06:51:18.314Z,20.01
2023-05-14T06:53:50.356Z,20.11
2023-05-14T06:56:22.908Z,20.14
2023-05-14T06:58:54.911Z,20.09
2023-05-14T07:01:26.902Z,19.94
2023-05-14T07:03:58.891Z,19.93
2023-05-14T07:06:30.916Z,20.08
2023-05-14T07:09:03.333Z,20.11
2023-05-14T07:11:35.411Z,20.04
2023-05-14T07:14:07.360Z,20.07
2023-05-14T07:16:40.284Z,20.04
2023-05-14T07:19:12.557Z,20.08
2023-05-14T07:21:44.589Z,20.21
2023-05-14T07:24:16.498Z,20.42
2023-05-14T07:26:48.455Z,20.59
2023-05-14T07:29:20.418Z,20.78
2023-05-14T07:31:52.471Z,20.85
2023-05-14T07:34:24.474Z,20.68
2023-05-14T07:36:56.521Z,20.58
2023-05-14T07:39:28.593Z,20.51
2023-05-14T07:42:01.758Z,20.57
2023-05-14T07:44:33.821Z,20.65
2023-05-14T07:47:07.561Z,20.67
2023-05-14T07:49:39.559Z,20.71
2023-05-14T07:52:11.551Z,20.68
2023-05-14T07:54:43.494Z,20.67
2023-05-14T07:57:15.456Z,20.72
2023-05-14T07:59:48.641Z,20.88
2023-05-14T08:02:20.719Z,21.07
2023-05-14T08:04:53.128Z,21.11
2023-05-14T08:07:25.581Z,21.02
2023-05-14T08:09:57.535Z,21.07
2023-05-14T08:12:29.952Z,21.21
2023-05-14T08:15:02.624Z,21.38
2023-05-14T08:17:34.780Z,21.60
2023-05-14T08:20:07.919Z,21.85
2023-05-14T08:22:39.929Z,21.97
2023-05-14T08:25:12.046Z,22.11
2023-05-14T08:27:44.032Z,22.18
2023-05-14T08:30:16.406Z,22.28
2023-05-14T08:32:48.658Z,22.43
2023-05-14T08:35:20.776Z,22.53
2023-05-14T08:37:52.778Z,22.58
2023-05-14T08:40:25.084Z,22.82
2023-05-14T08:42:58.823Z,23.05
2023-05-14T08:45:34.505Z,23.21
2023-05-14T08:48:11.558Z,23.32
2023-05-14T08:50:44.421Z,23.38
2023-05-14T08:53:16.420Z,23.33
2023-05-14T08:55:51.323Z,23.29
2023-05-14T08:58:26.708Z,23.28
2023-05-14T09:00:58.662Z,23.40
2023-05-14T09:03:31.388Z,23.58
2023-05-14T09:06:06.000Z,23.79
2023-05-14T09:08:38.842Z,23.94
2023-05-14T09:11:10.916Z,24.04
2023-05-14T09:13:43.081Z,24.17
2023-05-14T09:16:17.970Z,24.29
2023-05-14T09:18:51.455Z,24.37
2023-05-14T09:21:23.828Z,24.42
2023-05-14T09:23:58.025Z,24.46
2023-05-14T09:26:35.460Z,24.48
2023-05-14T09:29:07.994Z,24.28
2023-05-14T09:31:40.021Z,24.36
2023-05-14T09:34:12.216Z,24.52
2023-05-14T09:36:44.181Z,24.57
2023-05-14T09:39:17.422Z,24.56
2023-05-14T09:41:49.835Z,24.60
2023-05-14T09:44:23.350Z,24.57
2023-05-14T09:46:56.284Z,24.71
2023-05-14T09:49:28.521Z,24.88
2023-05-14T09:52:03.641Z,25.03
2023-05-14T09:54:37.303Z,25.14
2023-05-14T09:57:09.279Z,25.22
2023-05-14T09:59:41.332Z,25.22
2023-05-14T10:02:23.571Z,25.18
2023-05-14T10:05:00.342Z,25.32
2023-05-14T10:07:46.658Z,25.43
2023-05-14T10:10:27.354Z,25.49
2023-05-14T10:13:05.753Z,25.44
2023-05-14T10:15:52.156Z,25.44
2023-05-14T10:18:26.333Z,25.53
2023-05-14T10:21:06.303Z,25.59
2023-05-14T10:23:39.125Z,25.73
2023-05-14T10:26:11.419Z,25.86
2023-05-14T10:28:44.205Z,25.88
2023-05-14T10:31:16.311Z,25.92
2023-05-14T10:33:50.921Z,25.99
2023-05-14T10:36:23.085Z,26.09
2023-05-14T10:38:58.569Z,26.12
2023-05-14T10:41:30.602Z,26.07
2023-05-14T10:44:10.215Z,25.93
2023-05-14T10:46:42.392Z,25.97
2023-05-14T10:49:14.541Z,26.04
2023-05-14T10:51:49.560Z,26.07
2023-05-14T10:54:23.653Z,26.06
2023-05-14T10:56:59.775Z,26.00
2023-05-14T10:59:34.440Z,26.15
2023-05-14T11:02:20.427Z,26.32
2023-05-14T11:05:06.536Z,26.46
2023-05-14T11:07:44.931Z,26.60
2023-05-14T11:10:20.438Z,26.78
2023-05-14T11:12:52.891Z,26.74
2023-05-14T11:15:27.023Z,26.79
2023-05-14T11:17:59.034Z,26.73
2023-05-14T11:20:32.816Z,26.73
2023-05-14T11:23:04.907Z,26.79
2023-05-14T11:25:37.162Z,26.79
2023-05-14T11:28:09.354Z,26.84
2023-05-14T11:30:41.281Z,26.76
2023-05-14T11:33:13.360Z,26.81
2023-05-14T11:35:46.637Z,26.79
2023-05-14T11:38:21.244Z,26.78
2023-05-14T11:40:58.651Z,26.71
2023-05-14T11:43:30.910Z,26.96
2023-05-14T11:46:02.852Z,26.94
2023-05-14T11:48:35.356Z,26.95
2023-05-14T11:51:07.322Z,26.89
2023-05-14T11:53:39.381Z,26.91
2023-05-14T11:56:11.402Z,26.94
2023-05-14T11:58:56.953Z,26.94
2023-05-14T12:01:30.213Z,26.88
2023-05-14T12:04:04.584Z,26.88
2023-05-14T12:06:38.703Z,26.92
2023-05-14T12:09:12.928Z,26.96
2023-05-14T12:11:46.597Z,27.06
2023-05-14T12:14:24.322Z,27.16
2023-05-14T12:16:56.377Z,27.19
2023-05-14T12:19:30.995Z,27.14
2023-05-14T12:22:03.120Z,26.99
2023-05-14T12:24:35.061Z,26.91
2023-05-14T12:27:09.639Z,27.08
2023-05-14T12:29:43.661Z,27.03
2023-05-14T12:32:16.006Z,27.08
2023-05-14T12:34:48.112Z,27.14
2023-05-14T12:37:20.064Z,27.08
2023-05-14T12:39:52.105Z,27.09
2023-05-14T12:42:24.232Z,27.16
2023-05-14T12:44:56.338Z,27.14
2023-05-14T12:47:28.355Z,27.04
2023-05-14T12:50:00.309Z,27.05
2023-05-14T12:52:38.524Z,27.23
2023-05-14T12:55:11.805Z,27.31
2023-05-14T12:57:43.863Z,27.41
2023-05-14T13:00:16.284Z,27.33
2023-05-14T13:02:48.310Z,27.33
2023-05-14T13:05:20.348Z,27.42
2023-05-14T13:07:53.811Z,27.48
2023-05-14T13:10:25.776Z,27.41
2023-05-14T13:12:58.254Z,27.26
2023-05-14T13:15:31.608Z,27.09
2023-05-14T13:18:04.656Z,27.31
2023-05-14T13:20:36.812Z,27.36
2023-05-14T13:23:08.993Z,27.52
2023-05-14T13:25:41.153Z,27.66
2023-05-14T13:28:13.204Z,27.78
2023-05-14T13:31:08.899Z,27.74
2023-05-14T13:33:43.240Z,27.89
2023-05-14T13:36:16.404Z,28.03
2023-05-14T13:38:48.511Z,28.07
2023-05-14T13:41:21.705Z,27.91
2023-05-14T13:43:53.654Z,27.79
2023-05-14T13:46:25.808Z,27.75
2023-05-14T13:48:57.732Z,27.89
2023-05-14T13:51:29.651Z,28.01
2023-05-14T13:54:01.552Z,28.06
2023-05-14T13:56:33.495Z,27.97
2023-05-14T13:59:05.980Z,27.95
2023-05-14T14:01:38.093Z,27.95
2023-05-14T14:04:10.984Z,27.80
2023-05-14T14:06:42.913Z,27.80
2023-05-14T14:09:14.923Z,27.74
2023-05-14T14:11:47.078Z,27.59
2023-05-14T14:14:19.060Z,27.46
2023-05-14T14:16:50.998Z,27.40
2023-05-14T14:19:23.018Z,27.31
2023-05-14T14:21:55.056Z,27.33
2023-05-14T14:24:27.287Z,27.31
2023-05-14T14:26:59.316Z,27.31
2023-05-14T14:29:31.431Z,27.26
2023-05-14T14:32:04.402Z,27.22
2023-05-14T14:34:36.468Z,27.09
2023-05-14T14:37:08.590Z,26.97
2023-05-14T14:39:40.653Z,26.94
2023-05-14T14:42:12.862Z,26.90
2023-05-14T14:44:44.747Z,26.82
2023-05-14T14:47:16.716Z,26.73
2023-05-14T14:49:48.623Z,26.64
2023-05-14T14:52:21.001Z,26.59
2023-05-14T14:54:53.888Z,26.46
2023-05-14T14:57:26.785Z,26.40
2023-05-14T14:59:59.844Z,26.29
2023-05-14T15:02:33.583Z,26.23
2023-05-14T15:05:06.499Z,26.18
2023-05-14T15:07:38.454Z,26.01
2023-05-14T15:10:10.818Z,26.06
2023-05-14T15:12:42.878Z,26.02
2023-05-14T15:15:14.847Z,25.94
2023-05-14T15:17:46.850Z,25.90
2023-05-14T15:20:18.946Z,25.86
2023-05-14T15:22:54.096Z,25.85
2023-05-14T15:25:27.216Z,25.81
2023-05-14T15:27:59.249Z,25.79
2023-05-14T15:30:31.241Z,25.75
2023-05-14T15:33:03.478Z,25.78
2023-05-14T15:35:36.560Z,25.76
2023-05-14T15:38:09.155Z,25.70
2023-05-14T15:40:41.611Z,25.62
2023-05-14T15:43:13.572Z,25.58
2023-05-14T15:45:46.171Z,25.52
2023-05-14T15:48:18.271Z,25.41
2023-05-14T15:50:50.482Z,25.44
2023-05-14T15:53:22.448Z,25.40
2023-05-14T15:55:54.556Z,25.33
2023-05-14T15:58:26.930Z,25.35
2023-05-14T16:00:58.895Z,25.38
2023-05-14T16:03:30.962Z,25.41
2023-05-14T16:06:03.090Z,25.47
2023-05-14T16:08:35.126Z,25.49
2023-05-14T16:11:07.860Z,25.50
2023-05-14T16:13:41.615Z,25.50
2023-05-14T16:16:13.693Z,25.45
2023-05-14T16:18:45.788Z,25.46
2023-05-14T16:21:17.750Z,25.47
2023-05-14T16:23:49.678Z,25.44
2023-05-14T16:26:22.376Z,25.42
2023-05-14T16:28:54.343Z,25.46
2023-05-14T16:31:26.370Z,25.51
2023-05-14T16:33:59.360Z,25.46
2023-05-14T16:36:31.503Z,25.54
2023-05-14T16:39:07.674Z,25.44
2023-05-14T16:41:41.105Z,25.43
2023-05-14T16:44:13.124Z,25.39
2023-05-14T16:46:45.111Z,25.35
2023-05-14T16:49:17.193Z,25.29
2023-05-14T16:51:49.352Z,25.20
2023-05-14T16:54:21.388Z,25.17
2023-05-14T16:56:53.420Z,25.17
2023-05-14T16:59:25.519Z,25.21
2023-05-14T17:01:57.552Z,25.20
2023-05-14T17:04:29.750Z,25.06
2023-05-14T17:07:02.020Z,25.07
2023-05-14T17:09:34.093Z,25.06
2023-05-14T17:12:06.741Z,25.06
2023-05-14T17:14:38.667Z,24.94
2023-05-14T17:17:10.802Z,24.86
2023-05-14T17:19:42.809Z,24.76
2023-05-14T17:22:14.802Z,24.76
2023-05-14T17:24:46.702Z,24.59
2023-05-14T17:27:18.618Z,24.67
2023-05-14T17:29:53.087Z,24.60
2023-05-14T17:32:25.236Z,24.46
2023-05-14T17:34:57.571Z,24.29
2023-05-14T17:37:29.642Z,24.21
2023-05-14T17:40:01.619Z,24.18
2023-05-14T17:42:33.534Z,24.16
2023-05-14T17:45:06.375Z,24.16
2023-05-14T17:47:38.379Z,24.16
2023-05-14T17:50:11.287Z,24.02
2023-05-14T17:52:44.260Z,23.99
2023-05-14T17:55:17.530Z,23.94
2023-05-14T17:57:49.692Z,23.87
2023-05-14T18:00:21.772Z,23.71
2023-05-14T18:02:53.837Z,23.65
2023-05-14T18:05:26.513Z,23.58
2023-05-14T18:07:58.679Z,23.56
2023-05-14T18:10:30.685Z,23.54
2023-05-14T18:13:02.668Z,23.44
2023-05-14T18:15:36.784Z,23.36
2023-05-14T18:18:09.075Z,23.31
2023-05-14T18:20:41.054Z,23.23
2023-05-14T18:23:13.014Z,23.22
2023-05-14T18:25:45.448Z,23.19
2023-05-14T18:28:18.941Z,23.12
2023-05-14T18:30:51.047Z,22.97
2023-05-14T18:33:23.122Z,22.90
2023-05-14T18:35:55.120Z,22.77
2023-05-14T18:38:27.325Z,22.63
2023-05-14T18:40:59.311Z,22.64
2023-05-14T18:43:31.292Z,22.63
2023-05-14T18:46:03.418Z,22.60
2023-05-14T18:48:35.616Z,22.59
2023-05-14T18:51:07.720Z,22.55
2023-05-14T18:53:39.671Z,22.46
2023-05-14T18:56:11.580Z,22.38
2023-05-14T18:58:43.551Z,22.25
2023-05-14T19:01:15.799Z,22.10
2023-05-14T19:03:47.914Z,22.03
2023-05-14T19:06:20.453Z,21.99
2023-05-14T19:08:52.342Z,21.98
2023-05-14T19:11:24.308Z,21.95
2023-05-14T19:13:56.455Z,21.97
2023-05-14T19:16:28.606Z,21.97
2023-05-14T19:19:00.721Z,21.92
2023-05-14T19:21:32.748Z,21.86
2023-05-14T19:24:05.277Z,21.80
2023-05-14T19:26:37.571Z,21.90
2023-05-14T19:29:09.608Z,21.65
2023-05-14T19:31:41.641Z,21.57
2023-05-14T19:34:13.659Z,21.56
2023-05-14T19:36:45.777Z,21.47
2023-05-14T19:39:17.742Z,21.36
2023-05-14T19:41:49.708Z,21.30
2023-05-14T19:44:21.597Z,21.20
2023-05-14T19:46:53.723Z,21.10
2023-05-14T19:49:25.729Z,20.97
2023-05-14T19:51:57.649Z,20.88
2023-05-14T19:54:29.607Z,20.83
2023-05-14T19:57:01.521Z,20.77
2023-05-14T19:59:34.690Z,20.80
2023-05-14T20:02:07.821Z,20.74
2023-05-14T20:04:40.086Z,20.67
2023-05-14T20:07:15.359Z,20.67
2023-05-14T20:09:47.517Z,20.62
2023-05-14T20:12:19.619Z,20.63
2023-05-14T20:14:51.704Z,20.61
2023-05-14T20:17:24.950Z,20.57
2023-05-14T20:19:57.051Z,20.65
2023-05-14T20:22:28.972Z,20.64
2023-05-14T20:25:00.911Z,20.49
2023-05-14T20:27:32.954Z,20.55
2023-05-14T20:30:06.069Z,20.53
2023-05-14T20:32:38.244Z,20.48
2023-05-14T20:35:10.565Z,20.50
2023-05-14T20:37:42.556Z,20.44
2023-05-14T20:40:14.687Z,20.46
2023-05-14T20:42:46.750Z,20.43
2023-05-14T20:45:18.926Z,20.36
2023-05-14T20:47:50.941Z,20.31
2023-05-14T20:50:23.108Z,20.10
2023-05-14T20:52:55.793Z,20.24
2023-05-14T20:55:28.036Z,20.19
2023-05-14T20:58:00.246Z,20.17
2023-05-14T21:00:32.339Z,20.15
2023-05-14T21:03:04.998Z,20.06
2023-05-14T21:05:37.226Z,19.90
2023-05-14T21:08:09.373Z,19.85
2023-05-14T21:10:41.308Z,19.81
2023-05-14T21:13:13.398Z,19.63
2023-05-14T21:15:45.570Z,19.69
2023-05-14T21:18:17.449Z,19.68
2023-05-14T21:20:49.438Z,19.71
2023-05-14T21:23:21.373Z,19.69
2023-05-14T21:25:54.927Z,19.70
2023-05-14T21:28:26.903Z,19.70
2023-05-14T21:30:58.894Z,19.61
2023-05-14T21:33:30.857Z,19.67
2023-05-14T21:36:03.084Z,19.61
2023-05-14T21:38:35.541Z,19.60
2023-05-14T21:41:07.802Z,19.52
2023-05-14T21:43:40.849Z,19.53
2023-05-14T21:46:12.852Z,19.51
2023-05-14T21:48:44.853Z,19.49
2023-05-14T21:51:17.147Z,19.49
2023-05-14T21:53:49.064Z,19.78
2023-05-14T21:56:22.527Z,19.58
2023-05-14T21:58:56.133Z,19.52
2023-05-14T22:01:28.408Z,19.46
2023-05-14T22:04:00.310Z,19.47
2023-05-14T22:06:32.407Z,19.47
2023-05-14T22:09:04.609Z,19.49
2023-05-14T22:11:36.542Z,19.47
2023-05-14T22:14:09.117Z,19.43
2023-05-14T22:16:41.173Z,19.42
2023-05-14T22:19:13.300Z,19.38
2023-05-14T22:21:45.352Z,19.27
2023-05-14T22:24:17.318Z,19.13
2023-05-14T22:26:49.961Z,19.01
2023-05-14T22:29:21.943Z,18.92
2023-05-14T22:31:53.961Z,18.85
2023-05-14T22:34:26.069Z,18.84
2023-05-14T22:36:58.095Z,18.80
2023-05-14T22:39:30.331Z,18.73
2023-05-14T22:42:02.273Z,18.69
2023-05-14T22:44:36.615Z,18.68
2023-05-14T22:47:08.961Z,18.66
2023-05-14T22:49:41.521Z,18.68
2023-05-14T22:52:13.373Z,18.71
2023-05-14T22:54:46.702Z,18.66
2023-05-14T22:57:18.784Z,18.67
2023-05-14T22:59:50.764Z,18.61
2023-05-14T23:02:22.713Z,18.50
2023-05-14T23:04:54.750Z,18.53
2023-05-14T23:07:26.774Z,18.50
2023-05-14T23:09:58.728Z,18.53
2023-05-14T23:12:30.676Z,18.54
2023-05-14T23:15:02.675Z,18.50
2023-05-14T23:17:34.810Z,18.36
2023-05-14T23:20:10.530Z,18.29
2023-05-14T23:22:42.497Z,18.28
2023-05-14T23:25:14.602Z,18.29
2023-05-14T23:27:46.869Z,18.32
2023-05-14T23:30:18.905Z,18.32
2023-05-14T23:32:50.915Z,18.26
2023-05-14T23:35:23.387Z,18.23
2023-05-14T23:37:55.669Z,18.14
2023-05-14T23:40:27.641Z,18.08
2023-05-14T23:43:02.819Z,18.02
2023-05-14T23:45:34.941Z,17.89
2023-05-14T23:48:07.218Z,17.83
2023-05-14T23:50:39.226Z,17.86
2023-05-14T23:53:11.185Z,17.88
2023-05-14T23:55:43.193Z,17.83
2023-05-14T23:58:15.276Z,17.74
